createdAt,value
2023-01-10T00:01:32.296Z,11.62
2023-01-10T00:03:33.858Z,11.65
2023-01-10T00:05:36.322Z,11.66
2023-01-10T00:07:37.922Z,11.68
2023-01-10T00:09:39.508Z,11.70
2023-01-10T00:11:41.268Z,11.72
2023-01-10T00:13:44.269Z,11.75
2023-01-10T00:15:46.074Z,11.77
2023-01-10T00:17:47.776Z,11.78
2023-01-10T00:19:49.428Z,11.75
2023-01-10T00:21:51.161Z,11.77
2023-01-10T00:23:52.878Z,11.81
2023-01-10T00:25:54.549Z,11.79
2023-01-10T00:27:56.637Z,11.79
2023-01-10T00:29:59.622Z,11.81
2023-01-10T00:32:01.569Z,11.80
2023-01-10T00:34:03.227Z,11.78
2023-01-10T00:36:06.947Z,11.81
2023-01-10T00:38:08.616Z,11.84
2023-01-10T00:40:12.114Z,11.79
2023-01-10T00:42:13.767Z,11.75
2023-01-10T00:44:15.403Z,11.77
2023-01-10T00:46:18.384Z,11.85
2023-01-10T00:48:20.523Z,11.81
2023-01-10T00:50:22.163Z,11.81
2023-01-10T00:52:23.838Z,11.77
2023-01-10T00:54:26.028Z,11.72
2023-01-10T00:56:27.659Z,11.75
2023-01-10T00:58:29.296Z,11.77
2023-01-10T01:00:31.027Z,11.78
2023-01-10T01:02:34.273Z,11.77
2023-01-10T01:04:35.999Z,11.70
2023-01-10T01:06:37.701Z,11.72
2023-01-10T01:08:39.535Z,11.70
2023-01-10T01:10:41.250Z,11.68
2023-01-10T01:12:42.933Z,11.66
2023-01-10T01:14:45.687Z,11.68
2023-01-10T01:16:47.438Z,11.67
2023-01-10T01:18:50.680Z,11.75
2023-01-10T01:20:53.712Z,11.79
2023-01-10T01:22:55.355Z,11.73
2023-01-10T01:24:57.010Z,11.73
2023-01-10T01:26:58.705Z,11.69
2023-01-10T01:29:00.366Z,11.67
2023-01-10T01:31:07.342Z,11.65
2023-01-10T01:33:09.200Z,11.69
2023-01-10T01:35:15.243Z,11.71
2023-01-10T01:37:16.907Z,11.69
2023-01-10T01:39:18.518Z,11.72
2023-01-10T01:41:20.281Z,11.69
2023-01-10T01:43:26.816Z,11.66
2023-01-10T01:45:39.466Z,11.67
2023-01-10T01:47:44.890Z,11.67
2023-01-10T01:49:46.766Z,11.67
2023-01-10T01:51:56.570Z,11.75
2023-01-10T01:54:01.484Z,11.72
2023-01-10T01:56:08.003Z,11.69
2023-01-10T01:58:14.680Z,11.67
2023-01-10T02:00:16.787Z,11.67
2023-01-10T02:02:22.034Z,11.67
2023-01-10T02:04:28.918Z,11.69
2023-01-10T02:06:30.761Z,11.68
2023-01-10T02:08:34.117Z,11.66
2023-01-10T02:10:41.907Z,11.65
2023-01-10T02:12:45.678Z,11.65
2023-01-10T02:14:50.312Z,11.69
2023-01-10T02:16:54.628Z,11.70
2023-01-10T02:18:56.791Z,11.73
2023-01-10T02:21:16.793Z,11.70
2023-01-10T02:23:51.002Z,11.73
2023-01-10T02:26:30.640Z,11.77
2023-01-10T02:28:54.602Z,11.77
2023-01-10T02:31:15.680Z,11.78
2023-01-10T02:33:25.384Z,11.75
2023-01-10T02:35:47.297Z,11.80
2023-01-10T02:38:00.095Z,11.81
2023-01-10T02:40:07.860Z,11.78
2023-01-10T02:42:14.967Z,11.78
2023-01-10T02:44:21.771Z,11.75
2023-01-10T02:46:28.347Z,11.74
2023-01-10T02:48:31.398Z,11.74
2023-01-10T02:50:55.596Z,11.74
2023-01-10T02:53:00.447Z,11.73
2023-01-10T02:55:03.552Z,11.76
2023-01-10T02:57:29.108Z,11.77
2023-01-10T03:00:15.118Z,11.75
2023-01-10T03:02:28.174Z,11.76
2023-01-10T03:04:49.015Z,11.75
2023-01-10T03:06:58.327Z,11.76
2023-01-10T03:09:07.460Z,11.73
2023-01-10T03:11:10.900Z,11.68
2023-01-10T03:13:19.901Z,11.65
2023-01-10T03:15:23.308Z,11.64
2023-01-10T03:17:28.113Z,11.64
2023-01-10T03:19:32.932Z,11.66
2023-01-10T03:21:43.164Z,11.59
2023-01-10T03:23:47.495Z,11.65
2023-01-10T03:25:52.039Z,11.64
2023-01-10T03:28:00.456Z,11.62
2023-01-10T03:30:08.123Z,11.62
2023-01-10T03:32:11.830Z,11.60
2023-01-10T03:34:14.506Z,11.61
2023-01-10T03:36:20.935Z,11.63
2023-01-10T03:38:29.812Z,11.65
2023-01-10T03:40:36.476Z,11.65
2023-01-10T03:42:48.169Z,11.64
2023-01-10T03:44:59.287Z,11.64
2023-01-10T03:47:08.040Z,11.55
2023-01-10T03:49:11.475Z,11.50
2023-01-10T03:51:15.373Z,11.54
2023-01-10T03:53:17.303Z,11.57
2023-01-10T03:55:22.926Z,11.50
2023-01-10T03:57:24.979Z,11.58
2023-01-10T03:59:28.335Z,11.58
2023-01-10T04:01:30.091Z,11.61
2023-01-10T04:03:34.602Z,11.61
2023-01-10T04:05:36.235Z,11.50
2023-01-10T04:07:38.019Z,11.45
2023-01-10T04:09:39.708Z,11.43
2023-01-10T04:11:42.686Z,11.45
2023-01-10T04:13:44.316Z,11.47
2023-01-10T04:15:45.995Z,11.39
2023-01-10T04:17:48.183Z,11.41
2023-01-10T04:19:49.778Z,11.42
2023-01-10T04:21:51.886Z,11.38
2023-01-10T04:23:53.513Z,11.34
2023-01-10T04:25:55.154Z,11.32
2023-01-10T04:27:58.328Z,11.32
2023-01-10T04:29:59.925Z,11.34
2023-01-10T04:32:01.588Z,11.31
2023-01-10T04:34:03.237Z,11.28
2023-01-10T04:36:05.169Z,11.32
2023-01-10T04:38:06.774Z,11.30
2023-01-10T04:40:09.664Z,11.30
2023-01-10T04:42:11.449Z,11.31
2023-01-10T04:44:14.461Z,11.32
2023-01-10T04:46:16.179Z,11.35
2023-01-10T04:48:17.859Z,11.34
2023-01-10T04:50:19.530Z,11.28
2023-01-10T04:52:21.245Z,11.28
2023-01-10T04:54:23.255Z,11.30
2023-01-10T04:56:25.383Z,11.33
2023-01-10T04:58:26.995Z,11.36
2023-01-10T05:00:29.998Z,11.28
2023-01-10T05:02:31.643Z,11.26
2023-01-10T05:04:33.336Z,11.24
2023-01-10T05:06:34.947Z,11.21
2023-01-10T05:08:36.539Z,11.17
2023-01-10T05:10:38.285Z,11.16
2023-01-10T05:12:40.189Z,11.12
2023-01-10T05:14:41.837Z,11.09
2023-01-10T05:16:45.119Z,11.11
2023-01-10T05:18:47.228Z,11.10
2023-01-10T05:20:49.635Z,11.16
2023-01-10T05:22:51.551Z,11.13
2023-01-10T05:24:54.645Z,11.18
2023-01-10T05:26:56.519Z,11.10
2023-01-10T05:28:58.338Z,11.13
2023-01-10T05:31:00.028Z,11.16
2023-01-10T05:33:05.467Z,11.21
2023-01-10T05:35:07.888Z,11.19
2023-01-10T05:37:09.567Z,11.22
2023-01-10T05:39:11.327Z,11.24
2023-01-10T05:41:13.257Z,11.30
2023-01-10T05:43:14.867Z,11.30
2023-01-10T05:45:19.379Z,11.27
2023-01-10T05:47:21.509Z,11.33
2023-01-10T05:49:24.691Z,11.32
2023-01-10T05:51:26.431Z,11.24
2023-01-10T05:53:28.153Z,11.26
2023-01-10T05:55:29.783Z,11.26
2023-01-10T05:57:31.436Z,11.22
2023-01-10T05:59:33.069Z,11.26
2023-01-10T06:01:34.849Z,11.31
2023-01-10T06:03:36.771Z,11.33
2023-01-10T06:05:39.880Z,11.37
2023-01-10T06:07:41.495Z,11.34
2023-01-10T06:09:43.222Z,11.37
2023-01-10T06:11:44.890Z,11.40
2023-01-10T06:13:46.534Z,11.38
2023-01-10T06:15:48.504Z,11.41
2023-01-10T06:17:50.209Z,11.40
2023-01-10T06:19:51.879Z,11.35
2023-01-10T06:21:57.209Z,11.36
2023-01-10T06:23:59.000Z,11.36
2023-01-10T06:26:00.625Z,11.34
2023-01-10T06:28:02.603Z,11.31
2023-01-10T06:30:05.180Z,11.30
2023-01-10T06:32:07.203Z,11.33
2023-01-10T06:34:08.939Z,11.36
2023-01-10T06:36:11.973Z,11.34
2023-01-10T06:38:15.173Z,11.34
2023-01-10T06:40:17.677Z,11.37
2023-01-10T06:42:19.328Z,11.39
2023-01-10T06:44:21.027Z,11.39
2023-01-10T06:46:22.897Z,11.41
2023-01-10T06:48:24.625Z,11.40
2023-01-10T06:50:28.958Z,11.44
2023-01-10T06:52:31.167Z,11.42
2023-01-10T06:54:34.265Z,11.40
2023-01-10T06:56:35.917Z,11.42
2023-01-10T06:58:37.651Z,11.39
2023-01-10T07:00:39.500Z,11.36
2023-01-10T07:02:41.117Z,11.39
2023-01-10T07:04:42.780Z,11.39
2023-01-10T07:06:44.619Z,11.37
2023-01-10T07:08:46.835Z,11.34
2023-01-10T07:10:49.893Z,11.32
2023-01-10T07:12:51.591Z,11.24
2023-01-10T07:14:53.241Z,11.28
2023-01-10T07:16:54.858Z,11.27
2023-01-10T07:18:56.555Z,11.21
2023-01-10T07:20:58.290Z,11.14
2023-01-10T07:23:00.701Z,11.13
2023-01-10T07:25:02.308Z,11.13
2023-01-10T07:27:05.419Z,11.10
2023-01-10T07:29:07.157Z,11.09
2023-01-10T07:31:10.262Z,11.07
2023-01-10T07:33:11.929Z,11.09
2023-01-10T07:35:13.635Z,11.10
2023-01-10T07:37:15.358Z,11.16
2023-01-10T07:39:16.957Z,11.17
2023-01-10T07:41:19.112Z,11.17
2023-01-10T07:43:22.236Z,11.18
2023-01-10T07:45:23.957Z,11.14
2023-01-10T07:47:25.658Z,11.12
2023-01-10T07:49:27.393Z,11.13
2023-01-10T07:51:28.983Z,11.07
2023-01-10T07:53:31.021Z,11.08
2023-01-10T07:55:32.760Z,11.10
2023-01-10T07:57:34.548Z,11.10
2023-01-10T07:59:37.802Z,11.09
2023-01-10T08:01:39.497Z,11.10
2023-01-10T08:03:41.458Z,11.09
2023-01-10T08:05:43.401Z,11.12
2023-01-10T08:07:45.123Z,11.11
2023-01-10T08:09:46.824Z,11.13
2023-01-10T08:11:48.487Z,11.11
2023-01-10T08:13:50.659Z,11.09
2023-01-10T08:15:53.740Z,11.12
2023-01-10T08:17:55.479Z,11.15
2023-01-10T08:19:57.174Z,11.13
2023-01-10T08:21:58.833Z,11.06
2023-01-10T08:24:01.128Z,11.07
2023-01-10T08:26:02.863Z,11.09
2023-01-10T08:28:04.653Z,11.05
2023-01-10T08:30:07.623Z,11.03
2023-01-10T08:32:11.479Z,11.01
2023-01-10T08:34:13.779Z,11.00
2023-01-10T08:36:16.206Z,10.95
2023-01-10T08:38:17.954Z,11.00
2023-01-10T08:40:19.619Z,11.02
2023-01-10T08:42:21.714Z,11.04
2023-01-10T08:44:23.758Z,11.05
2023-01-10T08:46:25.652Z,11.03
2023-01-10T08:48:29.451Z,11.01
2023-01-10T08:50:31.724Z,11.09
2023-01-10T08:52:33.432Z,11.10
2023-01-10T08:54:35.493Z,11.14
2023-01-10T08:56:37.237Z,11.17
2023-01-10T08:58:39.502Z,11.10
2023-01-10T09:00:41.440Z,11.11
2023-01-10T09:02:43.710Z,11.10
2023-01-10T09:04:46.878Z,11.05
2023-01-10T09:06:48.521Z,11.04
2023-01-10T09:08:50.407Z,10.91
2023-01-10T09:10:52.132Z,10.90
2023-01-10T09:12:53.735Z,10.88
2023-01-10T09:14:55.447Z,10.91
2023-01-10T09:16:59.102Z,10.94
2023-01-10T09:19:00.858Z,10.90
2023-01-10T09:21:04.091Z,11.00
2023-01-10T09:23:06.917Z,10.96
2023-01-10T09:25:08.634Z,10.95
2023-01-10T09:27:10.660Z,11.06
2023-01-10T09:29:12.289Z,11.13
2023-01-10T09:31:13.942Z,11.09
2023-01-10T09:33:16.937Z,11.11
2023-01-10T09:35:18.990Z,11.07
2023-01-10T09:37:23.609Z,11.11
2023-01-10T09:39:25.460Z,11.16
2023-01-10T09:42:04.453Z,11.18
2023-01-10T09:44:17.920Z,11.15
2023-01-10T09:46:27.761Z,11.19
2023-01-10T09:48:40.319Z,11.24
2023-01-10T09:50:55.676Z,11.19
2023-01-10T09:53:05.689Z,11.16
2023-01-10T09:55:19.126Z,11.17
2023-01-10T09:57:22.704Z,11.15
2023-01-10T09:59:26.418Z,11.16
2023-01-10T10:01:33.376Z,11.17
2023-01-10T10:03:42.275Z,11.14
2023-01-10T10:05:45.642Z,11.07
2023-01-10T10:07:53.410Z,11.11
2023-01-10T10:09:56.463Z,11.22
2023-01-10T10:12:19.502Z,11.10
2023-01-10T10:14:33.826Z,11.13
2023-01-10T10:16:44.348Z,11.06
2023-01-10T10:18:57.893Z,10.93
2023-01-10T10:21:15.347Z,10.86
2023-01-10T10:23:44.507Z,11.00
2023-01-10T10:26:02.630Z,11.07
2023-01-10T10:28:19.030Z,11.12
2023-01-10T10:30:32.072Z,11.16
2023-01-10T10:33:06.785Z,11.04
2023-01-10T10:35:15.386Z,11.13
2023-01-10T10:37:22.146Z,11.23
2023-01-10T10:39:31.864Z,11.25
2023-01-10T10:41:38.329Z,11.23
2023-01-10T10:43:46.328Z,11.11
2023-01-10T10:45:52.490Z,11.13
2023-01-10T10:47:59.838Z,11.20
2023-01-10T10:50:11.650Z,11.14
2023-01-10T10:52:22.341Z,11.19
2023-01-10T10:54:24.024Z,11.18
2023-01-10T10:56:27.387Z,11.20
2023-01-10T10:58:31.462Z,11.33
2023-01-10T11:00:36.370Z,11.36
2023-01-10T11:02:43.441Z,11.39
2023-01-10T11:04:48.497Z,11.34
2023-01-10T11:06:50.841Z,11.36
2023-01-10T11:08:56.081Z,11.38
2023-01-10T11:11:02.287Z,11.32
2023-01-10T11:13:13.147Z,11.35
2023-01-10T11:15:37.432Z,11.37
2023-01-10T11:17:39.237Z,11.30
2023-01-10T11:20:00.859Z,11.27
2023-01-10T11:22:06.055Z,11.30
2023-01-10T11:24:21.159Z,11.35
2023-01-10T11:26:26.520Z,11.34
2023-01-10T11:28:32.625Z,11.35
2023-01-10T11:30:36.159Z,11.33
2023-01-10T11:32:40.362Z,11.22
2023-01-10T11:34:47.368Z,11.29
2023-01-10T11:36:53.879Z,11.22
2023-01-10T11:39:00.935Z,11.23
2023-01-10T11:41:21.171Z,11.20
2023-01-10T11:43:42.013Z,11.24
2023-01-10T11:45:45.687Z,11.32
2023-01-10T11:48:02.024Z,11.31
2023-01-10T11:50:20.179Z,11.39
2023-01-10T11:52:27.043Z,11.36
2023-01-10T11:54:33.561Z,11.28
2023-01-10T11:56:48.705Z,11.36
2023-01-10T11:58:55.731Z,11.40
2023-01-10T12:00:59.195Z,11.58
2023-01-10T12:03:01.568Z,11.74
2023-01-10T12:05:07.343Z,11.81
2023-01-10T12:07:12.010Z,11.77
2023-01-10T12:09:37.528Z,11.73
2023-01-10T12:11:39.261Z,11.70
2023-01-10T12:13:46.903Z,11.69
2023-01-10T12:15:49.128Z,11.66
2023-01-10T12:17:55.413Z,11.55
2023-01-10T12:20:01.967Z,11.56
2023-01-10T12:22:09.847Z,11.62
2023-01-10T12:24:16.813Z,11.64
2023-01-10T12:26:19.182Z,11.72
2023-01-10T12:28:24.224Z,11.66
2023-01-10T12:30:34.807Z,11.48
2023-01-10T12:32:44.693Z,11.36
2023-01-10T12:34:58.837Z,11.39
2023-01-10T12:37:08.921Z,11.44
2023-01-10T12:39:15.074Z,11.45
2023-01-10T12:41:22.758Z,11.42
2023-01-10T12:43:29.932Z,11.47
2023-01-10T12:45:42.692Z,11.50
2023-01-10T12:48:02.300Z,11.58
2023-01-10T12:50:20.284Z,11.60
2023-01-10T12:52:37.440Z,11.57
2023-01-10T12:54:39.150Z,11.48
2023-01-10T12:56:41.515Z,11.55
2023-01-10T12:58:47.910Z,11.60
2023-01-10T13:00:55.276Z,11.65
2023-01-10T13:05:35.829Z,11.68
2023-01-10T13:07:38.392Z,11.54
2023-01-10T13:09:42.432Z,11.64
2023-01-10T13:11:53.326Z,11.65
2023-01-10T13:14:00.074Z,11.67
2023-01-10T13:16:21.283Z,11.59
2023-01-10T13:18:26.317Z,11.57
2023-01-10T13:20:40.691Z,11.61
2023-01-10T13:22:47.323Z,11.66
2023-01-10T13:24:56.223Z,11.72
2023-01-10T13:27:00.213Z,11.72
2023-01-10T13:29:02.209Z,11.72
2023-01-10T13:31:05.749Z,11.76
2023-01-10T13:33:19.712Z,11.69
2023-01-10T13:35:36.662Z,11.64
2023-01-10T13:37:42.294Z,11.64
2023-01-10T13:39:45.486Z,11.69
2023-01-10T13:42:23.325Z,11.74
2023-01-10T13:44:25.043Z,11.68
2023-01-10T13:46:48.751Z,11.81
2023-01-10T13:49:30.670Z,11.82
2023-01-10T13:51:35.131Z,11.82
2023-01-10T13:53:57.617Z,11.85
2023-01-10T13:55:59.494Z,11.88
2023-01-10T13:58:31.178Z,11.86
2023-01-10T14:00:54.763Z,11.82
2023-01-10T14:02:59.080Z,11.78
2023-01-10T14:05:03.361Z,11.77
2023-01-10T14:07:12.805Z,11.80
2023-01-10T14:09:39.839Z,11.92
2023-01-10T14:11:51.381Z,11.87
2023-01-10T14:13:55.640Z,11.84
2023-01-10T14:15:58.165Z,11.79
2023-01-10T14:18:02.193Z,11.70
2023-01-10T14:20:17.724Z,11.86
2023-01-10T14:22:27.140Z,11.79
2023-01-10T14:24:35.806Z,11.81
2023-01-10T14:26:40.749Z,11.85
2023-01-10T14:28:42.690Z,11.79
2023-01-10T14:30:45.813Z,11.79
2023-01-10T14:32:49.974Z,11.82
2023-01-10T14:34:52.874Z,11.78
2023-01-10T14:36:59.208Z,11.70
2023-01-10T14:39:05.018Z,11.68
2023-01-10T14:41:21.130Z,11.57
2023-01-10T14:43:28.335Z,11.59
2023-01-10T14:45:34.409Z,11.61
2023-01-10T14:47:36.186Z,11.59
2023-01-10T14:49:52.522Z,11.53
2023-01-10T14:52:12.585Z,11.34
2023-01-10T14:54:15.124Z,11.27
2023-01-10T14:56:21.476Z,11.36
2023-01-10T14:58:24.911Z,11.39
2023-01-10T15:00:29.437Z,11.32
2023-01-10T15:02:36.501Z,11.37
2023-01-10T15:04:47.236Z,11.30
2023-01-10T15:06:54.169Z,11.40
2023-01-10T15:08:58.598Z,11.41
2023-01-10T15:11:03.641Z,11.37
2023-01-10T15:13:06.331Z,11.44
2023-01-10T15:15:15.434Z,11.43
2023-01-10T15:17:20.511Z,11.38
2023-01-10T15:19:24.185Z,11.40
2023-01-10T15:21:25.971Z,11.36
2023-01-10T15:23:34.864Z,11.35
2023-01-10T15:25:39.026Z,11.26
2023-01-10T15:27:45.870Z,11.31
2023-01-10T15:29:47.589Z,11.30
2023-01-10T15:31:51.752Z,11.25
2023-01-10T15:33:53.536Z,11.29
2023-01-10T15:35:55.664Z,11.22
2023-01-10T15:38:02.515Z,11.15
2023-01-10T15:40:07.741Z,11.25
2023-01-10T15:42:12.053Z,11.24
2023-01-10T15:44:31.290Z,11.23
2023-01-10T15:46:36.280Z,11.18
2023-01-10T15:48:40.807Z,11.27
2023-01-10T15:50:54.647Z,11.33
2023-01-10T15:52:58.903Z,11.26
2023-01-10T15:55:01.034Z,11.27
2023-01-10T15:57:07.667Z,11.22
2023-01-10T15:59:22.767Z,11.21
2023-01-10T16:01:28.686Z,11.16
2023-01-10T16:03:34.132Z,11.21
2023-01-10T16:05:37.322Z,11.23
2023-01-10T16:07:44.164Z,11.26
2023-01-10T16:09:53.854Z,11.27
2023-01-10T16:11:59.136Z,11.24
2023-01-10T16:14:00.838Z,11.19
2023-01-10T16:16:06.404Z,11.22
2023-01-10T16:18:08.240Z,11.21
2023-01-10T16:20:13.033Z,11.26
2023-01-10T16:22:18.636Z,11.25
2023-01-10T16:24:22.873Z,11.29
2023-01-10T16:26:24.671Z,11.24
2023-01-10T16:28:28.124Z,11.19
2023-01-10T16:30:31.981Z,11.11
2023-01-10T16:32:33.619Z,11.04
2023-01-10T16:34:35.244Z,11.08
2023-01-10T16:36:39.490Z,11.09
2023-01-10T16:38:43.369Z,11.07
2023-01-10T16:40:49.818Z,11.06
2023-01-10T16:42:51.492Z,11.07
2023-01-10T16:44:53.270Z,11.06
2023-01-10T16:46:54.953Z,11.05
2023-01-10T16:48:56.682Z,11.07
2023-01-10T16:51:15.844Z,11.09
2023-01-10T16:53:19.288Z,11.10
2023-01-10T16:55:26.909Z,11.06
2023-01-10T16:57:28.628Z,11.00
2023-01-10T16:59:30.316Z,10.98
2023-01-10T17:01:36.842Z,10.95
2023-01-10T17:03:39.289Z,10.92
2023-01-10T17:05:41.457Z,10.91
2023-01-10T17:07:43.137Z,10.83
2023-01-10T17:09:44.831Z,10.79
2023-01-10T17:11:50.508Z,10.80
2023-01-10T17:13:52.561Z,10.73
2023-01-10T17:15:54.272Z,10.76
2023-01-10T17:17:56.025Z,10.75
2023-01-10T17:19:59.407Z,10.73
2023-01-10T17:22:01.076Z,10.80
2023-01-10T17:24:02.755Z,10.82
2023-01-10T17:26:05.602Z,10.80
2023-01-10T17:28:10.120Z,10.76
2023-01-10T17:30:13.136Z,10.74
2023-01-10T17:32:14.808Z,10.80
2023-01-10T17:34:16.533Z,10.79
2023-01-10T17:36:19.503Z,10.77
2023-01-10T17:38:21.676Z,10.72
2023-01-10T17:40:23.637Z,10.75
2023-01-10T17:42:25.893Z,10.77
2023-01-10T17:44:30.265Z,10.77
2023-01-10T17:46:32.442Z,10.75
2023-01-10T17:48:34.128Z,10.76
2023-01-10T17:50:36.197Z,10.80
2023-01-10T17:52:37.812Z,10.78
2023-01-10T17:54:39.500Z,10.75
2023-01-10T17:56:41.276Z,10.75
2023-01-10T17:58:44.385Z,10.80
2023-01-10T18:00:47.542Z,10.75
2023-01-10T18:02:49.553Z,10.79
2023-01-10T18:04:51.363Z,10.78
2023-01-10T18:06:53.211Z,10.75
2023-01-10T18:08:54.923Z,10.74
2023-01-10T18:11:00.429Z,10.78
2023-01-10T18:13:03.589Z,10.72
2023-01-10T18:15:06.367Z,10.75
2023-01-10T18:17:12.003Z,10.74
2023-01-10T18:19:28.694Z,10.70
2023-01-10T18:21:30.471Z,10.66
2023-01-10T18:23:32.383Z,10.68
2023-01-10T18:25:38.620Z,10.74
2023-01-10T18:27:43.139Z,10.70
2023-01-10T18:29:52.050Z,10.68
2023-01-10T18:31:55.785Z,10.73
2023-01-10T18:33:58.839Z,10.72
2023-01-10T18:36:06.637Z,10.67
2023-01-10T18:38:08.314Z,10.67
2023-01-10T18:40:11.040Z,10.69
2023-01-10T18:42:13.731Z,10.58
2023-01-10T18:44:18.389Z,10.68
2023-01-10T18:46:22.184Z,10.66
2023-01-10T18:48:25.816Z,10.73
2023-01-10T18:50:28.947Z,10.77
2023-01-10T18:52:30.609Z,10.70
2023-01-10T18:54:32.332Z,10.73
2023-01-10T18:56:34.066Z,10.77
2023-01-10T18:58:37.357Z,10.73
2023-01-10T19:00:39.026Z,10.68
2023-01-10T19:02:46.871Z,10.67
2023-01-10T19:04:48.660Z,10.74
2023-01-10T19:06:54.893Z,10.74
2023-01-10T19:08:59.748Z,10.73
2023-01-10T19:11:13.379Z,10.70
2023-01-10T19:13:15.953Z,10.70
2023-01-10T19:15:33.400Z,10.71
2023-01-10T19:17:55.671Z,10.70
2023-01-10T19:19:57.510Z,10.78
2023-01-10T19:22:00.619Z,10.78
2023-01-10T19:24:07.027Z,10.78
2023-01-10T19:26:14.605Z,10.77
2023-01-10T19:28:16.575Z,10.78
2023-01-10T19:30:18.384Z,10.77
2023-01-10T19:32:23.021Z,10.78
2023-01-10T19:34:27.180Z,10.84
2023-01-10T19:36:29.470Z,10.82
2023-01-10T19:38:35.494Z,10.79
2023-01-10T19:40:37.238Z,10.77
2023-01-10T19:42:39.700Z,10.79
2023-01-10T19:44:44.347Z,10.77
2023-01-10T19:46:48.812Z,10.75
2023-01-10T19:48:50.573Z,10.70
2023-01-10T19:50:54.506Z,10.65
2023-01-10T19:52:56.163Z,10.67
2023-01-10T19:54:59.447Z,10.70
2023-01-10T19:57:18.925Z,10.73
2023-01-10T19:59:22.449Z,10.70
2023-01-10T20:01:30.272Z,10.62
2023-01-10T20:03:34.069Z,10.54
2023-01-10T20:05:38.055Z,10.55
2023-01-10T20:07:42.623Z,10.52
2023-01-10T20:09:58.710Z,10.49
2023-01-10T20:12:01.847Z,10.45
2023-01-10T20:14:04.483Z,10.48
2023-01-10T20:16:07.267Z,10.41
2023-01-10T20:18:08.985Z,10.37
2023-01-10T20:20:13.323Z,10.41
2023-01-10T20:22:15.608Z,10.38
2023-01-10T20:24:25.974Z,10.38
2023-01-10T20:26:31.865Z,10.35
2023-01-10T20:28:36.154Z,10.45
2023-01-10T20:30:37.831Z,10.44
2023-01-10T20:32:41.148Z,10.45
2023-01-10T20:35:04.555Z,10.48
2023-01-10T20:37:14.120Z,10.49
2023-01-10T20:39:15.948Z,10.48
2023-01-10T20:41:19.468Z,10.45
2023-01-10T20:43:25.893Z,10.50
2023-01-10T20:45:29.004Z,10.46
2023-01-10T20:47:30.817Z,10.52
2023-01-10T20:49:35.530Z,10.57
2023-01-10T20:51:40.097Z,10.56
2023-01-10T20:53:43.207Z,10.55
2023-01-10T20:55:53.468Z,10.57
2023-01-10T20:58:03.739Z,10.50
2023-01-10T21:00:06.385Z,10.47
2023-01-10T21:02:11.117Z,10.54
2023-01-10T21:04:19.652Z,10.46
2023-01-10T21:06:24.088Z,10.48
2023-01-10T21:08:30.272Z,10.48
2023-01-10T21:10:42.886Z,10.50
2023-01-10T21:12:44.740Z,10.46
2023-01-10T21:14:50.083Z,10.45
2023-01-10T21:16:59.706Z,10.47
2023-01-10T21:19:02.939Z,10.51
2023-01-10T21:21:08.428Z,10.52
2023-01-10T21:23:14.857Z,10.52
2023-01-10T21:25:20.014Z,10.41
2023-01-10T21:27:21.796Z,10.50
2023-01-10T21:29:25.837Z,10.49
2023-01-10T21:31:34.039Z,10.47
2023-01-10T21:33:38.753Z,10.53
2023-01-10T21:35:43.281Z,10.59
2023-01-10T21:37:44.982Z,10.46
2023-01-10T21:39:46.598Z,10.44
2023-01-10T21:41:54.126Z,10.47
2023-01-10T21:43:55.841Z,10.38
2023-01-10T21:45:58.135Z,10.40
2023-01-10T21:47:59.784Z,10.40
2023-01-10T21:50:01.525Z,10.43
2023-01-10T21:52:04.920Z,10.33
2023-01-10T21:54:06.582Z,10.43
2023-01-10T21:56:08.613Z,10.35
2023-01-10T21:58:13.489Z,10.39
2023-01-10T22:00:15.990Z,10.45
2023-01-10T22:02:19.073Z,10.43
2023-01-10T22:04:20.980Z,10.49
2023-01-10T22:06:22.743Z,10.49
2023-01-10T22:08:25.826Z,10.51
2023-01-10T22:10:27.526Z,10.35
2023-01-10T22:12:29.136Z,10.33
2023-01-10T22:14:30.809Z,10.37
2023-01-10T22:16:32.547Z,10.35
2023-01-10T22:18:34.159Z,10.33
2023-01-10T22:20:36.013Z,10.20
2023-01-10T22:22:37.734Z,10.22
2023-01-10T22:24:41.991Z,10.20
2023-01-10T22:26:43.733Z,10.27
2023-01-10T22:28:47.932Z,10.36
2023-01-10T22:30:49.646Z,10.35
2023-01-10T22:32:55.230Z,10.37
2023-01-10T22:34:56.821Z,10.38
2023-01-10T22:36:59.188Z,10.48
2023-01-10T22:39:00.895Z,10.48
2023-01-10T22:41:08.745Z,10.46
2023-01-10T22:43:10.438Z,10.52
2023-01-10T22:45:12.086Z,10.55
2023-01-10T22:47:13.712Z,10.62
2023-01-10T22:49:15.364Z,10.62
2023-01-10T22:51:18.732Z,10.61
2023-01-10T22:53:20.331Z,10.67
2023-01-10T22:55:22.048Z,10.69
2023-01-10T22:57:25.217Z,10.72
2023-01-10T22:59:27.669Z,10.73
2023-01-10T23:01:29.300Z,10.64
2023-01-10T23:03:30.993Z,10.70
2023-01-10T23:05:32.670Z,10.64
2023-01-10T23:07:34.329Z,10.72
2023-01-10T23:09:36.080Z,10.73
2023-01-10T23:11:37.771Z,10.70
2023-01-10T23:13:40.786Z,10.64
2023-01-10T23:15:42.496Z,10.69
2023-01-10T23:17:44.108Z,10.65
2023-01-10T23:19:45.658Z,10.62
2023-01-10T23:21:47.412Z,10.64
2023-01-10T23:23:49.072Z,10.65
2023-01-10T23:25:51.417Z,10.55
2023-01-10T23:27:53.567Z,10.71
2023-01-10T23:29:56.560Z,10.77
2023-01-10T23:31:58.168Z,10.80
2023-01-10T23:33:59.964Z,10.87
2023-01-10T23:36:01.795Z,10.80
2023-01-10T23:38:03.456Z,10.80
2023-01-10T23:40:06.407Z,10.80
2023-01-10T23:42:10.160Z,10.76
2023-01-10T23:44:12.000Z,10.82
2023-01-10T23:46:15.210Z,10.80
2023-01-10T23:48:20.170Z,10.82
2023-01-10T23:50:21.778Z,10.74
2023-01-10T23:52:23.483Z,10.74
2023-01-10T23:54:25.216Z,10.73
2023-01-10T23:56:26.864Z,10.75
2023-01-10T23:58:28.504Z,10.75
